Latest Weather Observations for Wagga Wagga

IDN60801

Issued at 6:32 pm EST Thursday 29 June 2017 (issued every 30 minutes, with the page automatically refreshed every 10 minutes)

About weather observations | Map of weather stations | Latest weather observations for NSW | Other Formats
Station Details ID: 072150 Name: WAGGA WAGGA AMO Lat: -35.16 Lon: 147.46 Height: 212.0 m
Data from the previous 72 hours. | See also: Recent months at Wagga Wagga
Date/Time
EST
Temp
°C
App
Temp
°C
Dew
Point
°C
Rel
Hum
%
Delta-T
°C
Wind Press
QNH
hPa
Press
MSL
hPa
Rain since
9am
mm
Dir  Spd
km/h
Gust
km/h
Spd
kts
Gust
kts
29/06:30pm 8.0 6.9 5.1 82 1.3 CALM 0 0 0 0 1022.7 1023.1 0.0
29/06:00pm 9.7 8.6 5.1 73 2.1 CALM 0 0 0 0 1022.2 1022.6 0.0
29/05:30pm 9.6 6.8 5.0 73 2.1 WSW 9 11 5 6 1022.0 1022.4 0.0
29/05:00pm 10.3 6.7 5.0 69 2.4 SW 13 15 7 8 1021.8 1022.2 0.0
29/04:30pm 11.8 7.4 4.6 61 3.3 SW 17 19 9 10 1021.7 1022.1 0.0
29/04:00pm 13.1 7.2 3.9 53 4.2 SW 24 39 13 21 1021.6 1022.0 0.0
29/03:30pm 13.3 7.8 3.9 53 4.3 SW 22 32 12 17 1021.6 1022.0 0.0
29/03:00pm 12.7 6.3 3.1 52 4.3 WSW 26 33 14 18 1021.4 1021.8 0.0
29/02:30pm 13.5 7.5 3.6 51 4.5 SW 24 32 13 17 1021.4 1021.8 0.0
29/02:00pm 13.0 6.7 3.7 53 4.2 WSW 26 32 14 17 1021.3 1021.7 0.0
29/01:30pm 12.5 7.4 3.9 56 3.9 SW 20 28 11 15 1021.5 1021.9 0.0
29/01:00pm 13.2 8.7 4.0 53 4.2 SW 17 24 9 13 1021.9 1022.3 0.0
29/12:30pm 12.8 7.9 4.0 55 4.0 WSW 19 28 10 15 1022.2 1022.6 0.0
29/12:00pm 11.8 8.4 3.8 58 3.6 W 11 17 6 9 1022.9 1023.3 0.0
29/11:30am 9.5 6.7 3.3 65 2.7 NW 7 9 4 5 1023.2 1023.6 0.0
29/11:00am 8.3 5.4 2.6 67 2.4 WSW 7 9 4 5 1023.7 1024.1 0.0
29/10:30am 7.8 5.4 2.3 68 2.3 NNE 4 7 2 4 1024.1 1024.4 0.0
29/10:00am 5.1 2.6 1.6 78 1.4 N 4 9 2 5 1024.2 1024.5 0.0
29/09:30am 3.6 1.1 1.3 85 0.9 E 4 7 2 4 1024.2 1024.5 0.0
29/09:00am 2.7 0.8 0.3 84 0.9 CALM 0 0 0 0 1024.3 1024.6 0.0
29/08:30am 0.5 - - - - CALM 0 0 0 0 1023.7 1024.1 0.0
29/08:00am -1.1 - - - - CALM 0 0 0 0 1023.3 1023.7 0.0
29/07:30am -1.9 - - - - CALM 0 0 0 0 1023.2 1023.6 0.0
29/07:00am -2.1 - - - - WSW 6 7 3 4 1023.1 1023.5 0.0
29/06:30am -3.4 - - - - SSW 7 9 4 5 1022.8 1023.2 0.0
29/06:00am -2.2 - - - - E 9 13 5 7 1022.8 1023.2 0.0
29/05:30am -0.8 - - - - NNE 9 9 5 5 1022.4 1022.8 0.0
29/05:00am -1.1 - - - - ESE 6 7 3 4 1022.3 1022.7 0.0
29/04:41am -1.8 - - - - SSW 4 7 2 4 1022.2 1022.6 0.0
29/04:30am -2.5 - - - - SSW 9 13 5 7 1022.2 1022.6 0.0
29/04:19am -1.0 - - - - SSW 4 7 2 4 1022.3 1022.7 0.0
29/04:00am -1.0 - - - - CALM 0 0 0 0 1022.7 1023.1 0.0
29/03:30am -1.1 - - - - CALM 0 0 0 0 1022.9 1023.3 0.0
29/03:00am -1.1 - - - - CALM 0 6 0 3 1022.9 1023.3 0.0
29/02:30am -1.6 - - - - NE 4 7 2 4 1022.8 1023.2 0.0
29/02:00am -0.6 - - - - CALM 0 0 0 0 1022.8 1023.2 0.0
29/01:30am -0.2 - - - - ENE 9 11 5 6 1022.8 1023.2 0.0
29/01:00am 0.4 -1.6 -0.1 96 0.2 CALM 0 4 0 2 1022.7 1023.1 0.0
29/12:30am 0.9 -1.4 0.1 94 0.3 SE 2 9 1 5 1022.8 1023.2 0.0
29/12:00am 0.5 - - - - CALM 0 0 0 0 1023.2 1023.6 0.0
 
Date/Time
EST
Temp
°C
App
Temp
°C
Dew
Point
°C
Rel
Hum
%
Delta-T
°C
Wind Press
QNH
hPa
Press
MSL
hPa
Rain since
9am
mm
Dir  Spd
km/h
Gust
km/h
Spd
kts
Gust
kts
28/11:30pm 0.8 -1.2 -0.3 92 0.4 CALM 0 6 0 3 1023.5 1023.9 0.0
28/11:00pm 1.8 -1.8 0.5 91 0.5 ENE 9 11 5 6 1023.5 1023.9 0.0
28/10:30pm 1.4 -0.5 0.3 92 0.4 CALM 0 0 0 0 1023.7 1024.1 0.0
28/10:00pm 2.8 1.0 1.2 89 0.6 CALM 0 0 0 0 1023.6 1024.0 0.0
28/09:30pm 3.6 1.9 1.6 87 0.8 CALM 0 0 0 0 1023.5 1023.9 0.0
28/09:00pm 2.6 0.7 0.8 88 0.7 CALM 0 0 0 0 1023.4 1023.8 0.0
28/08:30pm 4.7 1.9 2.0 83 1.1 N 6 7 3 4 1023.4 1023.8 0.0
28/08:00pm 4.7 1.8 1.4 79 1.3 NW 6 7 3 4 1023.2 1023.6 0.0
28/07:30pm 5.3 2.3 1.8 78 1.4 S 7 9 4 5 1023.0 1023.4 0.0
28/07:00pm 5.2 1.7 1.2 75 1.6 SSW 9 9 5 5 1023.1 1023.5 0.0
28/06:30pm 5.3 2.3 1.8 78 1.4 WSW 7 9 4 5 1023.0 1023.4 0.0
28/06:00pm 6.5 3.7 2.9 78 1.5 SW 7 7 4 4 1022.7 1023.1 0.0
28/05:30pm 7.4 4.1 2.6 71 2.0 SSW 9 11 5 6 1022.5 1022.9 0.0
28/05:00pm 9.4 5.7 2.1 60 3.1 SSW 11 13 6 7 1022.3 1022.7 0.0
28/04:30pm 11.8 7.6 1.8 50 4.3 SSW 13 17 7 9 1022.4 1022.8 0.0
28/04:00pm 12.6 8.4 1.4 46 4.8 SSW 13 17 7 9 1022.3 1022.7 0.0
28/03:30pm 13.2 8.3 1.7 45 5.0 WSW 17 24 9 13 1022.4 1022.8 0.0
28/03:00pm 12.5 7.1 1.0 45 4.9 W 19 24 10 13 1022.1 1022.5 0.0
28/02:30pm 12.6 7.9 0.8 44 5.0 WSW 15 22 8 12 1022.2 1022.6 0.0
28/02:00pm 13.1 8.9 1.5 45 5.0 SW 13 20 7 11 1022.2 1022.6 0.0
28/01:30pm 13.2 8.2 1.1 43 5.2 SW 17 26 9 14 1022.5 1022.9 0.0
28/01:00pm 12.9 8.6 0.9 44 5.1 W 13 22 7 12 1022.8 1023.2 0.0
28/12:30pm 13.0 10.0 2.0 47 4.8 WSW 7 11 4 6 1023.2 1023.6 0.0
28/12:00pm 12.0 9.4 3.2 55 3.9 WSW 6 11 3 6 1023.6 1024.0 0.0
28/11:30am 10.9 8.3 3.4 60 3.3 NW 6 9 3 5 1023.9 1024.3 0.0
28/11:00am 10.2 8.2 4.4 67 2.6 N 4 7 2 4 1024.2 1024.5 0.0
28/10:30am 8.4 7.2 4.8 78 1.6 CALM 0 0 0 0 1024.6 1024.9 0.0
28/10:00am 6.9 4.9 4.6 85 1.0 W 4 9 2 5 1024.7 1025.0 0.0
28/09:30am 6.4 5.2 4.6 88 0.8 CALM 0 0 0 0 1024.5 1024.8 0.0
28/09:00am 5.9 4.3 4.5 91 0.6 E 2 7 1 4 1024.1 1024.4 0.0
28/08:30am 4.9 3.6 4.2 95 0.3 CALM 0 0 0 0 1024.1 1024.4 0.0
28/08:00am 4.4 1.9 3.9 97 0.2 ESE 6 7 3 4 1023.7 1024.1 0.0
28/07:45am 4.1 2.7 3.6 97 0.2 CALM 0 0 0 0 1023.6 1024.0 0.0
28/07:30am 4.1 2.7 3.4 95 0.3 CALM 0 0 0 0 1023.9 1024.3 0.0
28/07:26am 3.8 2.4 3.6 99 0.1 CALM 0 0 0 0 1023.9 1024.3 0.0
28/07:00am 4.0 2.6 3.5 97 0.2 CALM 0 0 0 0 1023.9 1024.3 0.0
28/06:30am 4.1 2.7 3.4 95 0.3 CALM 0 0 0 0 1023.4 1023.8 0.0
28/06:00am 4.5 3.1 3.8 95 0.3 CALM 0 0 0 0 1023.1 1023.5 0.0
28/05:30am 4.8 3.5 3.9 94 0.4 CALM 0 0 0 0 1023.3 1023.7 0.0
28/05:00am 4.7 3.4 4.0 95 0.3 CALM 0 0 0 0 1023.1 1023.5 0.0
28/04:30am 4.1 2.7 3.6 97 0.2 CALM 0 0 0 0 1023.1 1023.5 0.0
28/04:00am 4.3 2.9 3.6 95 0.3 CALM 0 0 0 0 1023.5 1023.9 0.0
28/03:30am 4.7 3.4 4.0 95 0.3 CALM 0 0 0 0 1023.3 1023.7 0.0
28/03:00am 4.6 3.3 3.9 95 0.3 CALM 0 0 0 0 1023.7 1024.1 0.0
28/02:30am 4.6 3.3 3.9 95 0.3 CALM 0 4 0 2 1023.8 1024.2 0.0
28/02:00am 5.2 3.9 4.0 92 0.5 CALM 0 0 0 0 1023.5 1023.9 0.0
28/01:30am 4.7 3.4 4.2 97 0.2 CALM 0 7 0 4 1023.1 1023.5 0.0
28/01:00am 5.0 2.6 4.1 94 0.4 ESE 6 7 3 4 1023.1 1023.5 0.0
28/12:30am 5.5 3.0 4.6 94 0.4 E 7 9 4 5 1023.3 1023.7 0.0
28/12:00am 5.3 4.0 4.1 92 0.5 CALM 0 0 0 0 1023.7 1024.1 0.0
 
Date/Time
EST
Temp
°C
App
Temp
°C
Dew
Point
°C
Rel
Hum
%
Delta-T
°C
Wind Press
QNH
hPa
Press
MSL
hPa
Rain since
9am
mm
Dir  Spd
km/h
Gust
km/h
Spd
kts
Gust
kts
27/11:30pm 5.9 4.7 4.5 91 0.6 CALM 0 0 0 0 1024.1 1024.4 0.0
27/11:00pm 5.6 4.3 4.2 91 0.6 CALM 0 0 0 0 1024.1 1024.4 0.0
27/10:30pm 5.6 4.3 4.2 91 0.6 CALM 0 6 0 3 1024.5 1024.8 0.0
27/10:00pm 5.7 3.3 4.3 91 0.6 SSW 6 7 3 4 1024.5 1024.8 0.0
27/09:30pm 5.4 4.1 4.2 92 0.5 CALM 0 0 0 0 1024.4 1024.7 0.0
27/09:00pm 5.5 4.2 4.1 91 0.6 CALM 0 0 0 0 1024.3 1024.6 0.0
27/08:30pm 6.3 5.1 4.5 88 0.8 CALM 0 0 0 0 1024.1 1024.4 0.0
27/08:00pm 6.3 4.3 4.2 86 0.9 NNE 4 9 2 5 1024.1 1024.4 0.0
27/07:30pm 6.0 2.6 4.1 88 0.8 SSE 11 13 6 7 1024.2 1024.5 0.0
27/07:00pm 6.6 3.6 4.3 85 1.0 SE 9 13 5 7 1024.1 1024.4 0.0
27/06:30pm 6.9 5.3 4.4 84 1.1 N 2 6 1 3 1024.5 1024.8 0.0
27/06:00pm 7.6 6.1 5.1 84 1.1 ENE 2 7 1 4 1024.4 1024.7 0.0
27/05:30pm 8.1 7.0 5.0 81 1.4 CALM 0 0 0 0 1024.3 1024.6 0.0
27/05:00pm 8.4 7.3 5.3 81 1.4 CALM 0 0 0 0 1024.2 1024.5 0.0
27/04:30pm 9.1 6.6 4.6 73 2.0 SSE 7 9 4 5 1024.1 1024.4 0.0
27/04:00pm 9.6 6.6 3.9 67 2.5 SE 9 13 5 7 1023.8 1024.2 0.0
27/03:30pm 10.0 7.0 3.9 66 2.7 SE 9 11 5 6 1024.1 1024.4 0.0
27/03:00pm 9.5 6.8 3.8 67 2.5 SE 7 9 4 5 1024.1 1024.4 0.0
27/02:30pm 9.4 6.3 3.7 67 2.5 ESE 9 11 5 6 1024.3 1024.6 0.0
27/02:00pm 9.2 6.1 3.5 67 2.5 ESE 9 11 5 6 1024.4 1024.7 0.0
27/01:30pm 9.0 5.9 3.5 68 2.4 ESE 9 11 5 6 1024.6 1024.9 0.0
27/01:00pm 8.5 5.3 3.1 69 2.3 ESE 9 13 5 7 1025.0 1025.3 0.0
27/12:30pm 8.1 4.6 3.5 73 2.0 E 11 13 6 7 1025.4 1025.8 0.0
27/12:00pm 7.0 3.1 3.2 77 1.6 ESE 13 15 7 8 1025.8 1026.2 0.0
27/11:30am 6.6 3.4 3.3 79 1.4 E 9 11 5 6 1026.5 1026.9 0.0
27/11:00am 5.6 2.8 2.9 83 1.1 E 7 9 4 5 1026.9 1027.3 0.0
27/10:30am 5.1 1.8 2.7 84 1.0 E 9 11 5 6 1027.1 1027.5 0.0
27/10:00am 4.5 0.7 2.0 84 1.0 E 11 13 6 7 1027.0 1027.4 0.0
27/09:30am 3.7 -0.9 1.7 87 0.8 ESE 15 17 8 9 1026.9 1027.3 0.0
27/09:00am 2.0 -1.9 0.9 92 0.4 E 11 13 6 7 1027.1 1027.5 0.0
27/08:30am 1.3 - - - - E 13 15 7 8 1026.8 1027.2 0.0
27/08:00am -0.7 - - - - ESE 13 13 7 7 1026.5 1026.9 0.0
27/07:30am -1.6 - - - - ENE 7 9 4 5 1026.7 1027.1 0.0
27/07:00am -1.6 - - - - E 7 11 4 6 1026.2 1026.6 0.0
27/06:30am 0.0 - - - - ESE 11 13 6 7 1025.9 1026.3 0.0
27/06:00am -2.3 - - - - ENE 9 11 5 6 1026.2 1026.6 0.0
27/05:30am -2.1 - - - - ENE 7 7 4 4 1026.1 1026.5 0.0
27/05:00am -3.2 - - - - ESE 7 9 4 5 1026.2 1026.6 0.0
27/04:30am -1.9 - - - - E 9 9 5 5 1026.0 1026.4 0.0
27/04:12am -1.0 - - - - CALM 0 7 0 4 1026.0 1026.4 0.0
27/04:00am -1.3 - - - - CALM 0 0 0 0 1026.1 1026.5 0.0
27/03:30am -2.0 - - - - E 2 9 1 5 1025.9 1026.3 0.0
27/03:00am -1.2 - - - - ENE 7 11 4 6 1025.6 1026.0 0.0
27/02:30am 0.5 -3.2 0.2 98 0.1 ENE 9 9 5 5 1025.7 1026.1 0.0
27/02:00am 0.5 -2.8 0.2 98 0.1 ESE 7 9 4 5 1025.7 1026.1 0.0
27/01:59am 0.4 -2.9 0.1 98 0.1 ESE 7 9 4 5 1025.6 1026.0 0.0
27/01:30am 0.7 -1.2 0.4 98 0.1 CALM 0 0 0 0 1025.6 1026.0 0.0
27/01:00am 1.1 -1.5 0.8 98 0.1 NNW 4 9 2 5 1026.0 1026.4 0.0
27/12:56am 1.1 -2.1 0.8 98 0.1 NNW 7 9 4 5 1026.1 1026.5 0.0
27/12:36am 1.1 -0.7 1.1 100 0.0 CALM 0 2 0 1 1025.8 1026.2 0.0
27/12:32am 2.3 0.6 1.8 96 0.2 CALM 0 0 0 0 1025.9 1026.3 0.0
27/12:30am 2.1 0.4 2.1 100 0.0 CALM 0 7 0 4 1025.9 1026.3 0.0
27/12:02am 2.4 0.4 2.4 100 0.0 S 2 6 1 3 1025.4 1025.8 0.0
27/12:00am 2.9 1.0 2.7 99 0.1 S 2 7 1 4 1025.3 1025.7 0.0
 
Date/Time
EST
Temp
°C
App
Temp
°C
Dew
Point
°C
Rel
Hum
%
Delta-T
°C
Wind Press
QNH
hPa
Press
MSL
hPa
Rain since
9am
mm
Dir  Spd
km/h
Gust
km/h
Spd
kts
Gust
kts
26/11:30pm 1.2 -0.6 1.2 100 0.0 CALM 0 0 0 0 1025.6 1026.0 0.0
26/11:00pm 4.5 1.5 4.0 97 0.2 E 9 11 5 6 1025.6 1026.0 0.0
26/10:30pm 5.4 2.1 4.5 94 0.4 E 11 13 6 7 1025.7 1026.1 0.0
26/10:00pm 4.6 1.2 4.1 97 0.2 E 11 13 6 7 1025.5 1025.9 0.0
26/09:30pm 4.2 1.7 3.5 95 0.3 NE 6 9 3 5 1025.5 1025.9 0.0
26/09:00pm 4.2 1.4 3.2 93 0.4 W 7 9 4 5 1025.6 1026.0 0.0
26/08:30pm 6.8 3.5 4.5 85 1.0 SSE 11 13 6 7 1025.3 1025.7 0.0
26/08:00pm 6.2 3.2 4.1 86 0.9 ESE 9 9 5 5 1025.1 1025.5 0.0
26/07:30pm 5.6 3.0 4.0 89 0.7 SSW 7 11 4 6 1025.1 1025.5 0.0
26/07:00pm 5.5 2.0 3.6 87 0.8 SSW 11 13 6 7 1025.0 1025.3 0.0

Other Formats:

Comma delimited format used in spreadsheet applications
http://www.bom.gov.au/fwo/IDN60801/IDN60801.94910.axf

JavaScript Object Notation format (JSON) in row-major order
http://www.bom.gov.au/fwo/IDN60801/IDN60801.94910.json